Latest Coastal Weather Observations for Ngayawili (Elcho Island)

IDD60701

Issued at 1:15 pm CST Tuesday 21 October 2014 (issued every 10 minutes, with the page automatically refreshed every 10 minutes)

About coastal observations | Map of coastal stations | Coastal observations for NT | Marine services | Other Formats
Station Details ID: 014517 Name: NGAYAWILI Lat: -12.00 Lon: 135.57 Height: 8.1 m
Data from the previous 72 hours. | See also: Recent months at Ngayawili (Elcho Island)
Date/Time
CST
Temp

°C
Wind Pressure Rain
since 9am
mm
Weather Cloud Vis
km
Sea
Height
m
Swell
Dir
 
Speed
knots
Gust
knots
hPa Trend Height
m
Period
s
Dir
21/01:00pm 30.1 NE 7 14 1014.1 - 0.0 - - - - - - -
21/12:30pm 30.1 N 10 13 1014.6 - 0.0 - - - - - - -
21/12:00pm 30.5 NNE 13 16 1013.9 - 0.0 - - - - - - -
21/11:30am 30.3 NNE 11 16 1014.4 - 0.0 - - - - - - -
21/11:00am 29.9 NE 6 12 1015.7 - 0.0 - - - - - - -
21/10:30am 31.2 ENE 8 17 1015.2 - 0.0 - - - - - - -
21/10:00am 30.6 ENE 8 13 1015.9 - 0.0 - - - - - - -
21/09:30am 29.2 NE 7 11 1015.9 - 0.0 - - - - - - -
21/09:00am 29.2 E 7 12 1015.6 - 0.0 - - - - - - -
21/08:30am 28.7 E 5 9 1015.6 - 0.0 - - - - - - -
21/08:00am 27.0 ESE 6 9 1015.2 - 0.0 - - - - - - -
21/07:30am 25.1 E 5 7 1014.4 - 0.0 - - - - - - -
21/07:00am 23.0 E 4 6 1014.4 - 0.0 - - - - - - -
21/06:30am 20.6 E 4 5 1014.1 - 0.0 - - - - - - -
21/06:00am 20.5 E 4 5 1013.6 - 0.0 - - - - - - -
21/05:30am 20.5 E 3 4 1013.8 - 0.0 - - - - - - -
21/05:00am 21.3 ESE 0 0 1013.2 - 0.0 - - - - - - -
21/04:30am 22.2 ESE 4 5 1013.3 - 0.0 - - - - - - -
21/04:00am 22.7 ESE 5 6 1013.5 - 0.0 - - - - - - -
21/03:30am 23.2 SE 6 8 1013.5 - 0.0 - - - - - - -
21/03:00am 23.6 SE 6 9 1012.9 - 0.0 - - - - - - -
21/02:30am 23.9 ESE 7 11 1013.6 - 0.0 - - - - - - -
21/02:00am 24.1 ESE 7 9 1013.8 - 0.0 - - - - - - -
21/01:30am 24.3 SE 7 11 1016.9 - 0.0 - - - - - - -
21/01:00am 24.5 ESE 7 11 1014.2 - 0.0 - - - - - - -
21/12:30am 24.6 ESE 7 11 1014.4 - 0.0 - - - - - - -
21/12:00am 24.9 SE 8 12 1013.7 - 0.0 - - - - - - -
 
Date/Time
CST
Temp

°C
Wind Pressure Rain
since 9am
mm
Weather Cloud Vis
km
Sea
Height
m
Swell
Dir
 
Speed
knots
Gust
knots
hPa Trend Height
m
Period
s
Dir
20/11:30pm 25.1 SE 7 11 1014.6 - 0.0 - - - - - - -
20/11:00pm 25.4 ESE 6 9 1014.7 - 0.0 - - - - - - -
20/10:30pm 25.8 ESE 7 12 1013.4 - 0.0 - - - - - - -
20/10:00pm 25.9 ESE 6 9 1014.3 - 0.0 - - - - - - -
20/09:30pm 25.6 E 4 5 1013.9 - 0.0 - - - - - - -
20/09:00pm 26.0 E 5 8 1013.3 - 0.0 - - - - - - -
20/08:30pm 26.1 E 5 8 1012.7 - 0.0 - - - - - - -
20/08:00pm 26.5 ENE 5 7 1012.4 - 0.0 - - - - - - -
20/07:30pm 26.9 ENE 7 10 1012.1 - 0.0 - - - - - - -
20/07:00pm 27.0 ENE 6 11 1011.8 - 0.0 - - - - - - -
20/06:30pm 27.4 ENE 6 9 1011.3 - 0.0 - - - - - - -
20/06:00pm 28.0 ENE 9 15 1009.4 - 0.0 - - - - - - -
20/05:30pm 28.6 NE 10 14 1010.7 - 0.0 - - - - - - -
20/05:00pm 29.3 NE 10 15 1008.4 - 0.0 - - - - - - -
20/04:30pm 30.2 NE 11 15 1008.3 - 0.0 - - - - - - -
20/04:00pm 31.2 NE 12 19 1010.7 - 0.0 - - - - - - -
20/03:30pm 31.4 NNE 13 18 1010.9 - 0.0 - - - - - - -
20/03:00pm 32.0 NNE 13 18 1008.8 - 0.0 - - - - - - -
20/02:30pm 31.8 NNE 14 19 1011.6 - 0.0 - - - - - - -
20/02:00pm 31.6 NE 9 16 1010.4 - 0.0 - - - - - - -
20/01:30pm 31.4 NE 10 16 1013.8 - 0.0 - - - - - - -
20/01:00pm 31.8 E 10 16 1013.2 - 0.0 - - - - - - -
20/12:30pm 31.9 E 9 15 1013.7 - 0.0 - - - - - - -
20/12:00pm 31.8 ESE 7 13 1014.3 - 0.0 - - - - - - -
20/11:30am 31.3 ESE 9 14 1014.8 - 0.0 - - - - - - -
20/11:00am 30.7 SE 10 16 1015.0 - 0.0 - - - - - - -
20/10:30am 30.4 E 8 15 1015.2 - 0.0 - - - - - - -
20/10:00am 29.8 E 9 15 1015.4 - 0.0 - - - - - - -
20/09:30am 29.0 E 8 14 1015.2 - 0.0 - - - - - - -
20/09:00am 28.4 E 8 13 1015.0 - 0.0 - - - - - - -
20/08:30am 27.3 ESE 8 13 1015.3 - 0.0 - - - - - - -
20/08:00am 26.2 SE 8 13 1015.0 - 0.0 - - - - - - -
20/07:30am 25.3 ESE 6 11 1015.0 - 0.0 - - - - - - -
20/07:00am 23.9 ESE 4 6 1014.4 - 0.0 - - - - - - -
20/06:30am 23.0 ESE 5 6 1013.6 - 0.0 - - - - - - -
20/06:00am 22.6 ESE 5 6 1013.2 - 0.0 - - - - - - -
20/05:30am 22.6 ESE 5 6 1013.0 - 0.0 - - - - - - -
20/05:00am 22.6 ESE 5 6 1013.0 - 0.0 - - - - - - -
20/04:30am 22.7 ESE 5 6 1012.9 - 0.0 - - - - - - -
20/04:00am 22.9 ESE 5 7 1012.1 - 0.0 - - - - - - -
20/03:30am 22.9 SE 5 8 1012.7 - 0.0 - - - - - - -
20/03:00am 23.1 SSE 6 8 1012.5 - 0.0 - - - - - - -
20/02:30am 23.7 SSE 8 11 1012.6 - 0.0 - - - - - - -
20/02:00am 23.8 SE 7 9 1012.3 - 0.0 - - - - - - -
20/01:30am 23.7 SE 6 7 1012.3 - 0.0 - - - - - - -
20/01:00am 23.9 SE 5 6 1013.1 - 0.0 - - - - - - -
20/12:30am 24.4 SE 5 6 1013.5 - 0.0 - - - - - - -
20/12:00am 24.5 ESE 5 9 1013.0 - 0.0 - - - - - - -
 
Date/Time
CST
Temp

°C
Wind Pressure Rain
since 9am
mm
Weather Cloud Vis
km
Sea
Height
m
Swell
Dir
 
Speed
knots
Gust
knots
hPa Trend Height
m
Period
s
Dir
19/11:30pm 24.9 SE 6 10 1013.9 - 0.0 - - - - - - -
19/11:00pm 25.3 SE 7 11 1014.1 - 0.0 - - - - - - -
19/10:30pm 25.6 ESE 7 13 1014.2 - 0.0 - - - - - - -
19/10:00pm 25.9 ESE 6 9 1014.0 - 0.0 - - - - - - -
19/09:30pm 26.1 E 7 13 1013.6 - 0.0 - - - - - - -
19/09:00pm 25.9 E 5 9 1013.2 - 0.0 - - - - - - -
19/08:30pm 26.1 E 6 10 1012.8 - 0.0 - - - - - - -
19/08:00pm 26.2 ENE 6 10 1012.5 - 0.0 - - - - - - -
19/07:30pm 26.4 E 8 13 1010.3 - 0.0 - - - - - - -
19/07:00pm 26.7 E 9 14 1011.8 - 0.0 - - - - - - -
19/06:30pm 27.0 E 7 12 1011.6 - 0.0 - - - - - - -
19/06:00pm 27.8 ENE 9 15 1008.6 - 0.0 - - - - - - -
19/05:30pm 28.7 ENE 10 17 1010.9 - 0.0 - - - - - - -
19/05:00pm 29.8 NE 9 15 1010.9 - 0.0 - - - - - - -
19/04:30pm 30.4 NE 10 17 1008.1 - 0.0 - - - - - - -
19/04:00pm 30.6 ENE 11 19 1011.0 - 0.0 - - - - - - -
19/03:30pm 31.6 ENE 9 19 1011.1 - 0.0 - - - - - - -
19/03:00pm 31.5 NE 11 16 1008.7 - 0.0 - - - - - - -
19/02:30pm 31.7 ENE 9 14 1011.6 - 0.0 - - - - - - -
19/02:00pm 30.9 NE 11 21 1012.0 - 0.0 - - - - - - -
19/01:30pm 31.7 NE 9 15 1012.4 - 0.0 - - - - - - -
19/01:00pm 32.1 ENE 9 17 1012.9 - 0.0 - - - - - - -
19/12:30pm 31.5 NNE 12 17 1013.4 - 0.0 - - - - - - -
19/12:00pm 30.6 E 11 16 1013.8 - 0.0 - - - - - - -
19/11:30am 31.3 ENE 8 12 1014.3 - 0.0 - - - - - - -
19/11:00am 30.2 E 10 18 1014.5 - 0.0 - - - - - - -
19/10:30am 30.2 ENE 11 17 1014.7 - 0.0 - - - - - - -
19/10:00am 29.7 E 9 14 1014.7 - 0.0 - - - - - - -
19/09:30am 29.5 E 11 17 1014.7 - 0.0 - - - - - - -
19/09:00am 29.5 ENE 10 16 1014.5 - 0.0 - - - - - - -
19/08:30am 28.6 ENE 11 20 1014.4 - 0.0 - - - - - - -
19/08:00am 27.6 ENE 8 14 1014.1 - 0.0 - - - - - - -
19/07:30am 27.0 ENE 7 12 1013.8 - 0.0 - - - - - - -
19/07:00am 25.9 NE 6 8 1013.4 - 0.0 - - - - - - -
19/06:30am 24.6 ENE 5 7 1012.9 - 0.0 - - - - - - -
19/06:00am 24.0 E 5 6 1012.7 - 0.0 - - - - - - -
19/05:30am 23.9 E 4 5 1012.3 - 0.0 - - - - - - -
19/05:00am 24.5 E 4 5 1011.8 - 0.0 - - - - - - -
19/04:30am 25.1 ENE 4 7 1011.7 - 0.0 - - - - - - -
19/04:00am 25.6 E 4 7 1011.8 - 0.0 - - - - - - -
19/03:30am 25.9 E 5 8 1011.8 - 0.0 - - - - - - -
19/03:00am 25.9 E 4 6 1011.6 - 0.0 - - - - - - -
19/02:30am 26.1 E 5 8 1012.1 - 0.0 - - - - - - -
19/02:00am 26.3 E 6 9 1011.2 - 0.0 - - - - - - -
19/01:30am 26.3 ESE 6 8 1011.5 - 0.0 - - - - - - -
19/01:00am 26.4 E 6 11 1012.2 - 0.0 - - - - - - -
19/12:30am 26.4 E 6 9 1013.1 - 0.0 - - - - - - -
19/12:00am 26.5 E 6 11 1012.0 - 0.0 - - - - - - -
 
Date/Time
CST
Temp

°C
Wind Pressure Rain
since 9am
mm
Weather Cloud Vis
km
Sea
Height
m
Swell
Dir
 
Speed
knots
Gust
knots
hPa Trend Height
m
Period
s
Dir
18/11:30pm 26.5 ESE 6 11 1013.5 - 0.0 - - - - - - -
18/11:00pm 26.8 E 8 13 1012.2 - 0.0 - - - - - - -
18/10:30pm 27.0 E 7 13 1012.0 - 0.0 - - - - - - -
18/10:00pm 27.2 E 8 16 1013.3 - 0.0 - - - - - - -
18/09:30pm 27.0 E 6 10 1013.0 - 0.0 - - - - - - -
18/09:00pm 27.0 E 6 11 1011.5 - 0.0 - - - - - - -
18/08:30pm 27.0 E 6 10 1011.1 - 0.0 - - - - - - -
18/08:00pm 27.2 NE 5 8 1010.8 - 0.0 - - - - - - -
18/07:30pm 27.4 ENE 6 11 1011.7 - 0.0 - - - - - - -
18/07:00pm 27.5 ENE 8 13 1011.9 - 0.0 - - - - - - -
18/06:30pm 28.0 ENE 7 11 1009.4 - 0.0 - - - - - - -
18/06:00pm 28.4 NE 9 14 1009.0 - 0.0 - - - - - - -
18/05:30pm 29.2 NE 11 16 1011.1 - 0.0 - - - - - - -
18/05:00pm 29.6 NE 14 20 1010.8 - 0.0 - - - - - - -
18/04:30pm 30.3 NNE 15 23 1008.1 - 0.0 - - - - - - -
18/04:00pm 30.7 NNE 15 22 1010.8 - 0.0 - - - - - - -
18/03:30pm 31.5 NNE 15 20 1011.0 - 0.0 - - - - - - -
18/03:00pm 31.8 NNE 15 20 1011.3 - 0.0 - - - - - - -
18/02:30pm 32.1 N 15 20 1011.5 - 0.0 - - - - - - -
18/02:00pm 31.9 NNE 12 18 1012.0 - 0.0 - - - - - - -
18/01:30pm 32.2 N 15 20 1010.0 - 0.0 - - - - - - -

Other Formats:

Comma delimited format used in spreadsheet applications
http://www.bom.gov.au/fwo/IDD60701/IDD60701.95146.axf

JavaScript Object Notation format (JSON) in row-major order
http://www.bom.gov.au/fwo/IDD60701/IDD60701.95146.json